sensor_id;sensor_type;location;lat;lon;timestamp;P1;durP1;ratioP1;P2;durP2;ratioP2
8098;SDS011;4092;47.876;9.372;2023-07-08T00:00:09;6.17;;;3.97;;
8098;SDS011;4092;47.876;9.372;2023-07-08T00:02:39;6.87;;;3.50;;
8098;SDS011;4092;47.876;9.372;2023-07-08T00:05:07;7.57;;;3.60;;
8098;SDS011;4092;47.876;9.372;2023-07-08T00:07:35;5.70;;;2.77;;
8098;SDS011;4092;47.876;9.372;2023-07-08T00:10:02;6.70;;;3.07;;
8098;SDS011;4092;47.876;9.372;2023-07-08T00:12:35;5.37;;;3.17;;
8098;SDS011;4092;47.876;9.372;2023-07-08T00:15:02;7.37;;;4.20;;
8098;SDS011;4092;47.876;9.372;2023-07-08T00:17:30;10.20;;;3.23;;
8098;SDS011;4092;47.876;9.372;2023-07-08T00:19:59;8.10;;;3.90;;
8098;SDS011;4092;47.876;9.372;2023-07-08T00:22:25;7.10;;;3.20;;
8098;SDS011;4092;47.876;9.372;2023-07-08T00:24:53;6.50;;;3.60;;
8098;SDS011;4092;47.876;9.372;2023-07-08T00:27:20;12.83;;;2.97;;
8098;SDS011;4092;47.876;9.372;2023-07-08T00:29:47;6.70;;;3.40;;
8098;SDS011;4092;47.876;9.372;2023-07-08T00:32:14;5.07;;;3.07;;
8098;SDS011;4092;47.876;9.372;2023-07-08T00:34:41;4.87;;;3.13;;
8098;SDS011;4092;47.876;9.372;2023-07-08T00:37:11;8.87;;;4.10;;
8098;SDS011;4092;47.876;9.372;2023-07-08T00:39:38;5.37;;;3.67;;
8098;SDS011;4092;47.876;9.372;2023-07-08T00:42:10;6.07;;;3.90;;
8098;SDS011;4092;47.876;9.372;2023-07-08T00:44:42;6.03;;;3.90;;
8098;SDS011;4092;47.876;9.372;2023-07-08T00:47:11;7.43;;;3.10;;
8098;SDS011;4092;47.876;9.372;2023-07-08T00:49:40;5.87;;;3.43;;
8098;SDS011;4092;47.876;9.372;2023-07-08T00:52:19;5.63;;;3.30;;
8098;SDS011;4092;47.876;9.372;2023-07-08T00:54:49;6.23;;;3.50;;
8098;SDS011;4092;47.876;9.372;2023-07-08T00:57:16;9.63;;;3.57;;
8098;SDS011;4092;47.876;9.372;2023-07-08T00:59:45;6.87;;;2.80;;
8098;SDS011;4092;47.876;9.372;2023-07-08T01:02:18;6.50;;;3.80;;
8098;SDS011;4092;47.876;9.372;2023-07-08T01:04:49;6.33;;;4.10;;
8098;SDS011;4092;47.876;9.372;2023-07-08T01:07:21;11.60;;;3.83;;
8098;SDS011;4092;47.876;9.372;2023-07-08T01:09:51;8.67;;;4.50;;
8098;SDS011;4092;47.876;9.372;2023-07-08T01:12:24;3.50;;;2.90;;
8098;SDS011;4092;47.876;9.372;2023-07-08T01:14:54;14.63;;;4.17;;
8098;SDS011;4092;47.876;9.372;2023-07-08T01:17:23;4.60;;;2.50;;
8098;SDS011;4092;47.876;9.372;2023-07-08T01:19:50;7.93;;;4.33;;
8098;SDS011;4092;47.876;9.372;2023-07-08T01:22:22;5.00;;;3.47;;
8098;SDS011;4092;47.876;9.372;2023-07-08T01:24:49;7.10;;;3.77;;
8098;SDS011;4092;47.876;9.372;2023-07-08T01:27:17;10.40;;;3.63;;
8098;SDS011;4092;47.876;9.372;2023-07-08T01:29:45;7.93;;;3.60;;
8098;SDS011;4092;47.876;9.372;2023-07-08T01:32:13;8.67;;;3.30;;
8098;SDS011;4092;47.876;9.372;2023-07-08T01:34:43;6.30;;;2.83;;
8098;SDS011;4092;47.876;9.372;2023-07-08T01:37:27;9.57;;;3.80;;
8098;SDS011;4092;47.876;9.372;2023-07-08T01:39:55;5.53;;;3.13;;
8098;SDS011;4092;47.876;9.372;2023-07-08T01:42:22;7.93;;;3.17;;
8098;SDS011;4092;47.876;9.372;2023-07-08T01:44:50;9.23;;;4.87;;
8098;SDS011;4092;47.876;9.372;2023-07-08T01:47:19;10.10;;;4.03;;
8098;SDS011;4092;47.876;9.372;2023-07-08T01:49:48;6.83;;;4.03;;
8098;SDS011;4092;47.876;9.372;2023-07-08T01:52:15;5.40;;;3.30;;
8098;SDS011;4092;47.876;9.372;2023-07-08T01:54:48;11.70;;;3.10;;
8098;SDS011;4092;47.876;9.372;2023-07-08T01:57:21;10.20;;;4.30;;
8098;SDS011;4092;47.876;9.372;2023-07-08T01:59:48;6.10;;;3.53;;
8098;SDS011;4092;47.876;9.372;2023-07-08T02:02:15;12.50;;;4.00;;
8098;SDS011;4092;47.876;9.372;2023-07-08T02:04:42;16.17;;;4.10;;
8098;SDS011;4092;47.876;9.372;2023-07-08T02:07:09;6.53;;;3.43;;
8098;SDS011;4092;47.876;9.372;2023-07-08T02:09:36;4.80;;;3.10;;
8098;SDS011;4092;47.876;9.372;2023-07-08T02:12:04;4.27;;;2.70;;
8098;SDS011;4092;47.876;9.372;2023-07-08T02:14:32;4.83;;;2.00;;
8098;SDS011;4092;47.876;9.372;2023-07-08T02:16:59;5.23;;;1.63;;
8098;SDS011;4092;47.876;9.372;2023-07-08T02:19:26;2.70;;;1.50;;
8098;SDS011;4092;47.876;9.372;2023-07-08T02:21:53;5.60;;;1.93;;
8098;SDS011;4092;47.876;9.372;2023-07-08T02:24:20;7.87;;;2.00;;
8098;SDS011;4092;47.876;9.372;2023-07-08T02:26:48;2.40;;;1.33;;
8098;SDS011;4092;47.876;9.372;2023-07-08T02:29:16;3.53;;;1.33;;
8098;SDS011;4092;47.876;9.372;2023-07-08T02:31:43;2.30;;;1.63;;
8098;SDS011;4092;47.876;9.372;2023-07-08T02:34:10;5.70;;;1.73;;
8098;SDS011;4092;47.876;9.372;2023-07-08T02:36:37;3.83;;;1.93;;
8098;SDS011;4092;47.876;9.372;2023-07-08T02:39:04;1.73;;;1.17;;
8098;SDS011;4092;47.876;9.372;2023-07-08T02:41:31;1.50;;;1.17;;
8098;SDS011;4092;47.876;9.372;2023-07-08T02:43:58;4.30;;;1.43;;
8098;SDS011;4092;47.876;9.372;2023-07-08T02:46:27;1.40;;;1.03;;
8098;SDS011;4092;47.876;9.372;2023-07-08T02:48:53;1.03;;;0.80;;
8098;SDS011;4092;47.876;9.372;2023-07-08T02:51:20;3.10;;;0.80;;
8098;SDS011;4092;47.876;9.372;2023-07-08T02:53:47;1.63;;;0.90;;
8098;SDS011;4092;47.876;9.372;2023-07-08T02:56:15;1.77;;;1.03;;
8098;SDS011;4092;47.876;9.372;2023-07-08T02:58:42;1.10;;;0.80;;
8098;SDS011;4092;47.876;9.372;2023-07-08T03:01:09;1.50;;;1.00;;
8098;SDS011;4092;47.876;9.372;2023-07-08T03:03:37;1.10;;;0.70;;
8098;SDS011;4092;47.876;9.372;2023-07-08T03:06:04;1.97;;;1.00;;
8098;SDS011;4092;47.876;9.372;2023-07-08T03:08:31;2.37;;;0.77;;
8098;SDS011;4092;47.876;9.372;2023-07-08T03:11:00;1.13;;;0.90;;
8098;SDS011;4092;47.876;9.372;2023-07-08T03:13:28;1.60;;;0.97;;
8098;SDS011;4092;47.876;9.372;2023-07-08T03:15:56;1.30;;;0.83;;
8098;SDS011;4092;47.876;9.372;2023-07-08T03:18:25;1.93;;;0.83;;
8098;SDS011;4092;47.876;9.372;2023-07-08T03:20:54;2.90;;;1.23;;
8098;SDS011;4092;47.876;9.372;2023-07-08T03:23:22;1.63;;;0.70;;
8098;SDS011;4092;47.876;9.372;2023-07-08T03:25:49;2.90;;;1.10;;
8098;SDS011;4092;47.876;9.372;2023-07-08T03:28:16;1.67;;;0.93;;
8098;SDS011;4092;47.876;9.372;2023-07-08T03:30:44;1.97;;;0.87;;
8098;SDS011;4092;47.876;9.372;2023-07-08T03:33:11;1.93;;;0.97;;
8098;SDS011;4092;47.876;9.372;2023-07-08T03:35:39;3.60;;;1.20;;
8098;SDS011;4092;47.876;9.372;2023-07-08T03:38:08;4.00;;;1.27;;
8098;SDS011;4092;47.876;9.372;2023-07-08T03:40:35;1.00;;;0.70;;
8098;SDS011;4092;47.876;9.372;2023-07-08T03:43:02;1.50;;;0.80;;
8098;SDS011;4092;47.876;9.372;2023-07-08T03:45:29;1.60;;;0.97;;
8098;SDS011;4092;47.876;9.372;2023-07-08T03:47:56;2.17;;;1.17;;
8098;SDS011;4092;47.876;9.372;2023-07-08T03:50:23;5.03;;;1.80;;
8098;SDS011;4092;47.876;9.372;2023-07-08T03:52:52;4.20;;;1.60;;
8098;SDS011;4092;47.876;9.372;2023-07-08T03:55:22;2.03;;;1.20;;
8098;SDS011;4092;47.876;9.372;2023-07-08T03:57:49;1.97;;;0.93;;
8098;SDS011;4092;47.876;9.372;2023-07-08T04:00:16;6.00;;;1.23;;
8098;SDS011;4092;47.876;9.372;2023-07-08T04:02:44;1.30;;;0.90;;
8098;SDS011;4092;47.876;9.372;2023-07-08T04:05:12;1.90;;;1.13;;
8098;SDS011;4092;47.876;9.372;2023-07-08T04:07:40;2.73;;;1.30;;
8098;SDS011;4092;47.876;9.372;2023-07-08T04:10:07;2.73;;;1.27;;
8098;SDS011;4092;47.876;9.372;2023-07-08T04:12:36;1.80;;;1.60;;
8098;SDS011;4092;47.876;9.372;2023-07-08T04:15:05;1.90;;;1.20;;
8098;SDS011;4092;47.876;9.372;2023-07-08T04:17:41;2.80;;;1.33;;
8098;SDS011;4092;47.876;9.372;2023-07-08T04:20:10;2.97;;;1.30;;
8098;SDS011;4092;47.876;9.372;2023-07-08T04:22:40;3.90;;;1.50;;
8098;SDS011;4092;47.876;9.372;2023-07-08T04:25:07;4.30;;;1.90;;
8098;SDS011;4092;47.876;9.372;2023-07-08T04:27:37;4.90;;;1.60;;
8098;SDS011;4092;47.876;9.372;2023-07-08T04:30:05;3.57;;;1.90;;
8098;SDS011;4092;47.876;9.372;2023-07-08T04:32:33;3.93;;;2.10;;
8098;SDS011;4092;47.876;9.372;2023-07-08T04:35:03;3.70;;;1.70;;
8098;SDS011;4092;47.876;9.372;2023-07-08T04:37:30;3.63;;;1.90;;
8098;SDS011;4092;47.876;9.372;2023-07-08T04:39:57;2.50;;;1.80;;
8098;SDS011;4092;47.876;9.372;2023-07-08T04:42:24;3.63;;;2.40;;
8098;SDS011;4092;47.876;9.372;2023-07-08T04:44:55;5.73;;;2.37;;
8098;SDS011;4092;47.876;9.372;2023-07-08T04:47:22;9.00;;;2.70;;
8098;SDS011;4092;47.876;9.372;2023-07-08T04:49:49;16.07;;;3.97;;
8098;SDS011;4092;47.876;9.372;2023-07-08T04:52:15;5.13;;;2.90;;
8098;SDS011;4092;47.876;9.372;2023-07-08T04:54:42;3.27;;;1.73;;
8098;SDS011;4092;47.876;9.372;2023-07-08T04:57:09;7.50;;;2.77;;
8098;SDS011;4092;47.876;9.372;2023-07-08T04:59:36;6.63;;;3.40;;
8098;SDS011;4092;47.876;9.372;2023-07-08T05:02:05;6.13;;;2.87;;
8098;SDS011;4092;47.876;9.372;2023-07-08T05:04:32;7.90;;;2.30;;
8098;SDS011;4092;47.876;9.372;2023-07-08T05:07:00;4.50;;;2.00;;
8098;SDS011;4092;47.876;9.372;2023-07-08T05:09:26;6.23;;;1.90;;
8098;SDS011;4092;47.876;9.372;2023-07-08T05:11:54;4.70;;;2.17;;
8098;SDS011;4092;47.876;9.372;2023-07-08T05:14:21;3.10;;;1.77;;
8098;SDS011;4092;47.876;9.372;2023-07-08T05:16:48;4.30;;;1.70;;
8098;SDS011;4092;47.876;9.372;2023-07-08T05:19:16;5.70;;;2.20;;
8098;SDS011;4092;47.876;9.372;2023-07-08T05:21:43;9.03;;;2.47;;
8098;SDS011;4092;47.876;9.372;2023-07-08T05:24:10;3.30;;;2.03;;
8098;SDS011;4092;47.876;9.372;2023-07-08T05:26:37;3.73;;;1.93;;
8098;SDS011;4092;47.876;9.372;2023-07-08T05:29:04;2.90;;;2.03;;
8098;SDS011;4092;47.876;9.372;2023-07-08T05:31:32;3.00;;;2.53;;
8098;SDS011;4092;47.876;9.372;2023-07-08T05:33:59;6.53;;;2.83;;
8098;SDS011;4092;47.876;9.372;2023-07-08T05:36:28;4.70;;;1.57;;
8098;SDS011;4092;47.876;9.372;2023-07-08T05:38:55;5.47;;;3.20;;
8098;SDS011;4092;47.876;9.372;2023-07-08T05:41:22;4.70;;;2.30;;
8098;SDS011;4092;47.876;9.372;2023-07-08T05:43:49;7.33;;;1.83;;
8098;SDS011;4092;47.876;9.372;2023-07-08T05:46:16;2.40;;;1.87;;
8098;SDS011;4092;47.876;9.372;2023-07-08T05:48:43;2.40;;;2.20;;
8098;SDS011;4092;47.876;9.372;2023-07-08T05:51:10;4.30;;;2.10;;
8098;SDS011;4092;47.876;9.372;2023-07-08T05:53:39;4.33;;;1.80;;
8098;SDS011;4092;47.876;9.372;2023-07-08T05:56:05;2.40;;;1.83;;
8098;SDS011;4092;47.876;9.372;2023-07-08T05:58:32;6.70;;;2.17;;
8098;SDS011;4092;47.876;9.372;2023-07-08T06:00:59;4.33;;;2.10;;
8098;SDS011;4092;47.876;9.372;2023-07-08T06:03:26;4.53;;;1.90;;
8098;SDS011;4092;47.876;9.372;2023-07-08T06:05:53;5.10;;;2.03;;
8098;SDS011;4092;47.876;9.372;2023-07-08T06:08:21;3.13;;;2.00;;
8098;SDS011;4092;47.876;9.372;2023-07-08T06:10:50;8.00;;;3.07;;
8098;SDS011;4092;47.876;9.372;2023-07-08T06:13:17;4.50;;;2.23;;
8098;SDS011;4092;47.876;9.372;2023-07-08T06:15:44;5.23;;;1.97;;
8098;SDS011;4092;47.876;9.372;2023-07-08T06:18:11;6.40;;;2.33;;
8098;SDS011;4092;47.876;9.372;2023-07-08T06:20:38;5.83;;;1.90;;
8098;SDS011;4092;47.876;9.372;2023-07-08T06:23:05;7.70;;;3.27;;
8098;SDS011;4092;47.876;9.372;2023-07-08T06:25:32;7.30;;;1.90;;
8098;SDS011;4092;47.876;9.372;2023-07-08T06:28:00;5.43;;;2.67;;
8098;SDS011;4092;47.876;9.372;2023-07-08T06:30:27;5.70;;;1.93;;
8098;SDS011;4092;47.876;9.372;2023-07-08T06:32:54;7.30;;;2.57;;
8098;SDS011;4092;47.876;9.372;2023-07-08T06:35:21;3.57;;;1.90;;
8098;SDS011;4092;47.876;9.372;2023-07-08T06:37:48;17.13;;;3.23;;
8098;SDS011;4092;47.876;9.372;2023-07-08T06:40:15;3.53;;;1.80;;
8098;SDS011;4092;47.876;9.372;2023-07-08T06:42:44;4.23;;;2.57;;
8098;SDS011;4092;47.876;9.372;2023-07-08T06:45:13;4.67;;;2.30;;
8098;SDS011;4092;47.876;9.372;2023-07-08T06:47:40;4.70;;;2.80;;
8098;SDS011;4092;47.876;9.372;2023-07-08T06:50:07;6.53;;;2.80;;
8098;SDS011;4092;47.876;9.372;2023-07-08T06:52:34;5.43;;;2.07;;
8098;SDS011;4092;47.876;9.372;2023-07-08T06:55:03;3.33;;;2.17;;
8098;SDS011;4092;47.876;9.372;2023-07-08T06:57:32;3.97;;;1.83;;
8098;SDS011;4092;47.876;9.372;2023-07-08T06:59:59;3.60;;;1.70;;
8098;SDS011;4092;47.876;9.372;2023-07-08T07:02:27;5.63;;;2.47;;
8098;SDS011;4092;47.876;9.372;2023-07-08T07:04:54;3.07;;;1.83;;
8098;SDS011;4092;47.876;9.372;2023-07-08T07:07:21;3.70;;;2.60;;
8098;SDS011;4092;47.876;9.372;2023-07-08T07:09:48;4.30;;;1.93;;
8098;SDS011;4092;47.876;9.372;2023-07-08T07:12:15;3.40;;;1.93;;
8098;SDS011;4092;47.876;9.372;2023-07-08T07:14:42;3.30;;;1.70;;
8098;SDS011;4092;47.876;9.372;2023-07-08T07:17:09;3.43;;;2.00;;
8098;SDS011;4092;47.876;9.372;2023-07-08T07:19:38;3.57;;;2.07;;
8098;SDS011;4092;47.876;9.372;2023-07-08T07:22:05;3.60;;;2.07;;
8098;SDS011;4092;47.876;9.372;2023-07-08T07:24:32;2.27;;;1.60;;
8098;SDS011;4092;47.876;9.372;2023-07-08T07:26:59;1.97;;;1.33;;
8098;SDS011;4092;47.876;9.372;2023-07-08T07:29:26;2.80;;;1.37;;
8098;SDS011;4092;47.876;9.372;2023-07-08T07:31:53;2.37;;;1.67;;
8098;SDS011;4092;47.876;9.372;2023-07-08T07:34:20;4.20;;;1.73;;
8098;SDS011;4092;47.876;9.372;2023-07-08T07:36:49;4.60;;;1.57;;
8098;SDS011;4092;47.876;9.372;2023-07-08T07:39:16;3.03;;;1.60;;
8098;SDS011;4092;47.876;9.372;2023-07-08T07:41:43;3.23;;;1.37;;
8098;SDS011;4092;47.876;9.372;2023-07-08T07:44:10;4.33;;;1.80;;
8098;SDS011;4092;47.876;9.372;2023-07-08T07:46:37;1.83;;;1.20;;
8098;SDS011;4092;47.876;9.372;2023-07-08T07:49:04;7.27;;;1.80;;
8098;SDS011;4092;47.876;9.372;2023-07-08T07:51:31;4.13;;;1.70;;
8098;SDS011;4092;47.876;9.372;2023-07-08T07:53:59;5.33;;;2.50;;
8098;SDS011;4092;47.876;9.372;2023-07-08T07:56:26;2.93;;;1.70;;
8098;SDS011;4092;47.876;9.372;2023-07-08T07:58:53;2.80;;;1.30;;
8098;SDS011;4092;47.876;9.372;2023-07-08T08:01:20;4.33;;;1.70;;
8098;SDS011;4092;47.876;9.372;2023-07-08T08:03:48;6.90;;;2.17;;
8098;SDS011;4092;47.876;9.372;2023-07-08T08:06:16;2.30;;;1.40;;
8098;SDS011;4092;47.876;9.372;2023-07-08T08:08:43;11.73;;;2.27;;
8098;SDS011;4092;47.876;9.372;2023-07-08T08:11:12;3.40;;;2.10;;
8098;SDS011;4092;47.876;9.372;2023-07-08T08:13:39;2.43;;;1.53;;
8098;SDS011;4092;47.876;9.372;2023-07-08T08:16:06;4.70;;;2.10;;
8098;SDS011;4092;47.876;9.372;2023-07-08T08:18:33;4.13;;;1.90;;
8098;SDS011;4092;47.876;9.372;2023-07-08T08:21:00;2.77;;;1.27;;
8098;SDS011;4092;47.876;9.372;2023-07-08T08:23:27;2.43;;;1.63;;
8098;SDS011;4092;47.876;9.372;2023-07-08T08:25:54;2.03;;;1.10;;
8098;SDS011;4092;47.876;9.372;2023-07-08T08:28:22;3.83;;;1.30;;
8098;SDS011;4092;47.876;9.372;2023-07-08T08:30:49;3.30;;;1.10;;
8098;SDS011;4092;47.876;9.372;2023-07-08T08:33:17;1.80;;;0.90;;
8098;SDS011;4092;47.876;9.372;2023-07-08T08:35:45;1.83;;;0.83;;
8098;SDS011;4092;47.876;9.372;2023-07-08T08:38:12;4.10;;;1.67;;
8098;SDS011;4092;47.876;9.372;2023-07-08T08:40:39;1.93;;;1.00;;
8098;SDS011;4092;47.876;9.372;2023-07-08T08:43:09;4.23;;;1.40;;
8098;SDS011;4092;47.876;9.372;2023-07-08T08:45:41;3.17;;;2.00;;
8098;SDS011;4092;47.876;9.372;2023-07-08T08:48:15;2.90;;;0.77;;
8098;SDS011;4092;47.876;9.372;2023-07-08T08:50:47;2.07;;;0.80;;
8098;SDS011;4092;47.876;9.372;2023-07-08T08:53:17;1.63;;;1.00;;
8098;SDS011;4092;47.876;9.372;2023-07-08T08:55:46;1.50;;;0.93;;
8098;SDS011;4092;47.876;9.372;2023-07-08T08:58:24;3.43;;;1.60;;
8098;SDS011;4092;47.876;9.372;2023-07-08T09:00:59;2.13;;;1.10;;
8098;SDS011;4092;47.876;9.372;2023-07-08T09:03:33;3.73;;;0.97;;
8098;SDS011;4092;47.876;9.372;2023-07-08T09:06:08;2.33;;;1.20;;
8098;SDS011;4092;47.876;9.372;2023-07-08T09:08:38;2.63;;;1.10;;
8098;SDS011;4092;47.876;9.372;2023-07-08T09:11:09;5.60;;;1.03;;
8098;SDS011;4092;47.876;9.372;2023-07-08T09:13:43;2.23;;;1.03;;
8098;SDS011;4092;47.876;9.372;2023-07-08T09:16:14;3.30;;;0.77;;
8098;SDS011;4092;47.876;9.372;2023-07-08T09:18:54;1.90;;;1.30;;
8098;SDS011;4092;47.876;9.372;2023-07-08T09:21:25;6.67;;;1.20;;
8098;SDS011;4092;47.876;9.372;2023-07-08T09:23:57;1.30;;;0.90;;
8098;SDS011;4092;47.876;9.372;2023-07-08T09:26:28;1.97;;;0.90;;
8098;SDS011;4092;47.876;9.372;2023-07-08T09:28:58;4.07;;;1.27;;
8098;SDS011;4092;47.876;9.372;2023-07-08T09:31:27;2.10;;;1.13;;
8098;SDS011;4092;47.876;9.372;2023-07-08T09:34:05;1.90;;;1.37;;
8098;SDS011;4092;47.876;9.372;2023-07-08T09:36:33;1.90;;;1.10;;
8098;SDS011;4092;47.876;9.372;2023-07-08T09:39:05;1.73;;;1.10;;
8098;SDS011;4092;47.876;9.372;2023-07-08T09:41:37;2.90;;;0.97;;
8098;SDS011;4092;47.876;9.372;2023-07-08T09:44:18;1.70;;;0.90;;
8098;SDS011;4092;47.876;9.372;2023-07-08T09:46:52;1.90;;;1.30;;
8098;SDS011;4092;47.876;9.372;2023-07-08T09:49:21;1.30;;;1.10;;
8098;SDS011;4092;47.876;9.372;2023-07-08T09:51:50;2.07;;;1.07;;
8098;SDS011;4092;47.876;9.372;2023-07-08T09:54:18;3.33;;;1.30;;
8098;SDS011;4092;47.876;9.372;2023-07-08T09:56:50;7.50;;;1.70;;
8098;SDS011;4092;47.876;9.372;2023-07-08T09:59:25;2.10;;;1.10;;
8098;SDS011;4092;47.876;9.372;2023-07-08T10:01:58;3.70;;;1.43;;
8098;SDS011;4092;47.876;9.372;2023-07-08T10:04:26;1.90;;;1.30;;
8098;SDS011;4092;47.876;9.372;2023-07-08T10:06:54;2.10;;;1.20;;
8098;SDS011;4092;47.876;9.372;2023-07-08T10:09:24;1.57;;;0.80;;
8098;SDS011;4092;47.876;9.372;2023-07-08T10:11:53;1.13;;;0.77;;
8098;SDS011;4092;47.876;9.372;2023-07-08T10:14:25;3.63;;;1.10;;
8098;SDS011;4092;47.876;9.372;2023-07-08T10:16:55;1.40;;;0.90;;
8098;SDS011;4092;47.876;9.372;2023-07-08T10:19:24;2.60;;;1.10;;
8098;SDS011;4092;47.876;9.372;2023-07-08T10:21:51;4.60;;;1.50;;
8098;SDS011;4092;47.876;9.372;2023-07-08T10:24:36;2.40;;;1.40;;
8098;SDS011;4092;47.876;9.372;2023-07-08T10:27:17;2.20;;;1.00;;
8098;SDS011;4092;47.876;9.372;2023-07-08T10:29:53;2.60;;;1.77;;
8098;SDS011;4092;47.876;9.372;2023-07-08T10:32:28;4.27;;;1.17;;
8098;SDS011;4092;47.876;9.372;2023-07-08T10:35:04;2.63;;;1.70;;
8098;SDS011;4092;47.876;9.372;2023-07-08T10:37:42;3.77;;;1.00;;
8098;SDS011;4092;47.876;9.372;2023-07-08T10:40:21;1.67;;;1.20;;
8098;SDS011;4092;47.876;9.372;2023-07-08T10:43:07;2.40;;;1.17;;
8098;SDS011;4092;47.876;9.372;2023-07-08T10:45:45;4.10;;;1.20;;
8098;SDS011;4092;47.876;9.372;2023-07-08T10:48:24;1.70;;;1.03;;
8098;SDS011;4092;47.876;9.372;2023-07-08T10:51:10;1.90;;;1.00;;
8098;SDS011;4092;47.876;9.372;2023-07-08T10:53:53;2.57;;;1.60;;
8098;SDS011;4092;47.876;9.372;2023-07-08T10:56:35;2.10;;;1.30;;
8098;SDS011;4092;47.876;9.372;2023-07-08T10:59:19;2.13;;;0.87;;
8098;SDS011;4092;47.876;9.372;2023-07-08T11:02:20;2.20;;;1.37;;
8098;SDS011;4092;47.876;9.372;2023-07-08T11:07:56;2.53;;;1.40;;
8098;SDS011;4092;47.876;9.372;2023-07-08T11:10:29;4.30;;;1.23;;
8098;SDS011;4092;47.876;9.372;2023-07-08T11:13:02;1.67;;;1.10;;
8098;SDS011;4092;47.876;9.372;2023-07-08T11:15:33;2.30;;;1.17;;
8098;SDS011;4092;47.876;9.372;2023-07-08T11:18:06;1.60;;;1.00;;
8098;SDS011;4092;47.876;9.372;2023-07-08T11:20:41;2.73;;;1.20;;
8098;SDS011;4092;47.876;9.372;2023-07-08T11:23:29;2.77;;;1.30;;
8098;SDS011;4092;47.876;9.372;2023-07-08T11:26:10;3.33;;;1.47;;
8098;SDS011;4092;47.876;9.372;2023-07-08T11:28:50;5.00;;;1.67;;
8098;SDS011;4092;47.876;9.372;2023-07-08T11:31:20;2.67;;;1.30;;
8098;SDS011;4092;47.876;9.372;2023-07-08T11:33:48;3.63;;;1.90;;
8098;SDS011;4092;47.876;9.372;2023-07-08T11:36:18;3.33;;;1.80;;
8098;SDS011;4092;47.876;9.372;2023-07-08T11:38:49;1.63;;;1.03;;
8098;SDS011;4092;47.876;9.372;2023-07-08T11:41:19;4.53;;;1.43;;
8098;SDS011;4092;47.876;9.372;2023-07-08T11:43:49;3.77;;;2.00;;
8098;SDS011;4092;47.876;9.372;2023-07-08T11:46:19;2.13;;;1.40;;
8098;SDS011;4092;47.876;9.372;2023-07-08T11:48:51;5.03;;;1.10;;
8098;SDS011;4092;47.876;9.372;2023-07-08T11:51:22;2.07;;;1.10;;
8098;SDS011;4092;47.876;9.372;2023-07-08T11:53:58;6.43;;;1.73;;
8098;SDS011;4092;47.876;9.372;2023-07-08T11:56:27;2.10;;;1.13;;
8098;SDS011;4092;47.876;9.372;2023-07-08T11:59:08;2.03;;;1.00;;
8098;SDS011;4092;47.876;9.372;2023-07-08T12:01:46;3.63;;;1.33;;
8098;SDS011;4092;47.876;9.372;2023-07-08T12:04:28;3.07;;;1.20;;
8098;SDS011;4092;47.876;9.372;2023-07-08T12:07:09;2.20;;;1.30;;
8098;SDS011;4092;47.876;9.372;2023-07-08T12:09:45;1.60;;;1.20;;
8098;SDS011;4092;47.876;9.372;2023-07-08T12:12:16;3.93;;;1.50;;
8098;SDS011;4092;47.876;9.372;2023-07-08T12:14:49;5.83;;;1.17;;
8098;SDS011;4092;47.876;9.372;2023-07-08T12:17:17;3.30;;;1.67;;
8098;SDS011;4092;47.876;9.372;2023-07-08T12:19:44;2.37;;;1.40;;
8098;SDS011;4092;47.876;9.372;2023-07-08T12:22:16;3.10;;;1.27;;
8098;SDS011;4092;47.876;9.372;2023-07-08T12:24:44;2.60;;;1.33;;
8098;SDS011;4092;47.876;9.372;2023-07-08T12:27:10;2.63;;;1.83;;
8098;SDS011;4092;47.876;9.372;2023-07-08T12:29:38;5.37;;;1.70;;
8098;SDS011;4092;47.876;9.372;2023-07-08T12:32:05;2.13;;;1.43;;
8098;SDS011;4092;47.876;9.372;2023-07-08T12:34:35;10.47;;;1.83;;
8098;SDS011;4092;47.876;9.372;2023-07-08T12:37:02;3.80;;;1.30;;
8098;SDS011;4092;47.876;9.372;2023-07-08T12:39:31;4.70;;;1.73;;
8098;SDS011;4092;47.876;9.372;2023-07-08T12:42:00;3.03;;;1.00;;
8098;SDS011;4092;47.876;9.372;2023-07-08T12:44:29;4.43;;;1.60;;
8098;SDS011;4092;47.876;9.372;2023-07-08T12:47:00;2.50;;;1.67;;
8098;SDS011;4092;47.876;9.372;2023-07-08T12:49:28;2.80;;;1.60;;
8098;SDS011;4092;47.876;9.372;2023-07-08T12:51:55;4.47;;;1.23;;
8098;SDS011;4092;47.876;9.372;2023-07-08T12:54:22;1.70;;;1.13;;
8098;SDS011;4092;47.876;9.372;2023-07-08T12:56:52;1.83;;;1.40;;
8098;SDS011;4092;47.876;9.372;2023-07-08T12:59:21;3.23;;;1.40;;
8098;SDS011;4092;47.876;9.372;2023-07-08T13:01:49;4.03;;;1.53;;
8098;SDS011;4092;47.876;9.372;2023-07-08T13:04:19;1.90;;;1.20;;
8098;SDS011;4092;47.876;9.372;2023-07-08T13:06:46;3.47;;;1.63;;
8098;SDS011;4092;47.876;9.372;2023-07-08T13:09:26;2.83;;;1.60;;
8098;SDS011;4092;47.876;9.372;2023-07-08T13:12:03;3.00;;;1.40;;
8098;SDS011;4092;47.876;9.372;2023-07-08T13:14:37;7.10;;;2.10;;
8098;SDS011;4092;47.876;9.372;2023-07-08T13:17:08;2.30;;;1.50;;
8098;SDS011;4092;47.876;9.372;2023-07-08T13:19:38;2.17;;;1.27;;
8098;SDS011;4092;47.876;9.372;2023-07-08T13:22:05;2.07;;;1.50;;
8098;SDS011;4092;47.876;9.372;2023-07-08T13:24:38;1.73;;;1.03;;
8098;SDS011;4092;47.876;9.372;2023-07-08T13:27:08;3.70;;;1.87;;
8098;SDS011;4092;47.876;9.372;2023-07-08T13:29:41;3.17;;;1.30;;
8098;SDS011;4092;47.876;9.372;2023-07-08T13:32:09;4.30;;;1.50;;
8098;SDS011;4092;47.876;9.372;2023-07-08T13:34:36;1.70;;;1.30;;
8098;SDS011;4092;47.876;9.372;2023-07-08T13:37:07;5.23;;;1.90;;
8098;SDS011;4092;47.876;9.372;2023-07-08T13:39:37;2.60;;;1.23;;
8098;SDS011;4092;47.876;9.372;2023-07-08T13:42:07;2.27;;;1.67;;
8098;SDS011;4092;47.876;9.372;2023-07-08T13:44:41;2.50;;;1.40;;
8098;SDS011;4092;47.876;9.372;2023-07-08T13:47:18;2.10;;;1.43;;
8098;SDS011;4092;47.876;9.372;2023-07-08T13:49:53;2.17;;;1.20;;
8098;SDS011;4092;47.876;9.372;2023-07-08T13:52:22;2.47;;;1.40;;
8098;SDS011;4092;47.876;9.372;2023-07-08T13:54:50;2.43;;;1.53;;
8098;SDS011;4092;47.876;9.372;2023-07-08T13:57:21;2.80;;;1.70;;
8098;SDS011;4092;47.876;9.372;2023-07-08T13:59:54;9.83;;;2.20;;
8098;SDS011;4092;47.876;9.372;2023-07-08T14:02:21;2.23;;;1.20;;
8098;SDS011;4092;47.876;9.372;2023-07-08T14:04:53;2.23;;;1.10;;
8098;SDS011;4092;47.876;9.372;2023-07-08T14:07:22;5.33;;;2.10;;
8098;SDS011;4092;47.876;9.372;2023-07-08T14:09:51;3.33;;;1.80;;
8098;SDS011;4092;47.876;9.372;2023-07-08T14:12:21;2.80;;;1.13;;
8098;SDS011;4092;47.876;9.372;2023-07-08T14:14:48;2.03;;;0.90;;
8098;SDS011;4092;47.876;9.372;2023-07-08T14:17:18;2.67;;;1.50;;
8098;SDS011;4092;47.876;9.372;2023-07-08T14:19:48;3.63;;;1.40;;
8098;SDS011;4092;47.876;9.372;2023-07-08T14:22:25;4.40;;;1.80;;
8098;SDS011;4092;47.876;9.372;2023-07-08T14:24:53;2.90;;;1.20;;
8098;SDS011;4092;47.876;9.372;2023-07-08T14:27:36;4.33;;;1.37;;
8098;SDS011;4092;47.876;9.372;2023-07-08T14:30:03;3.00;;;1.30;;
8098;SDS011;4092;47.876;9.372;2023-07-08T14:32:31;4.50;;;1.60;;
8098;SDS011;4092;47.876;9.372;2023-07-08T14:34:59;2.73;;;1.70;;
8098;SDS011;4092;47.876;9.372;2023-07-08T14:37:35;3.47;;;1.40;;
8098;SDS011;4092;47.876;9.372;2023-07-08T14:40:09;3.40;;;1.80;;
8098;SDS011;4092;47.876;9.372;2023-07-08T14:42:50;5.70;;;1.67;;
8098;SDS011;4092;47.876;9.372;2023-07-08T14:45:26;3.77;;;1.50;;
8098;SDS011;4092;47.876;9.372;2023-07-08T14:47:56;3.23;;;1.80;;
8098;SDS011;4092;47.876;9.372;2023-07-08T14:50:22;2.67;;;1.27;;
8098;SDS011;4092;47.876;9.372;2023-07-08T14:52:50;2.27;;;1.80;;
8098;SDS011;4092;47.876;9.372;2023-07-08T14:55:17;4.20;;;1.60;;
8098;SDS011;4092;47.876;9.372;2023-07-08T14:57:45;2.93;;;1.70;;
8098;SDS011;4092;47.876;9.372;2023-07-08T15:00:16;2.37;;;1.53;;
8098;SDS011;4092;47.876;9.372;2023-07-08T15:02:45;1.67;;;1.23;;
8098;SDS011;4092;47.876;9.372;2023-07-08T15:05:14;3.17;;;1.37;;
8098;SDS011;4092;47.876;9.372;2023-07-08T15:07:43;2.50;;;1.60;;
8098;SDS011;4092;47.876;9.372;2023-07-08T15:10:10;2.43;;;0.90;;
8098;SDS011;4092;47.876;9.372;2023-07-08T15:12:38;2.43;;;1.43;;
8098;SDS011;4092;47.876;9.372;2023-07-08T15:15:13;2.80;;;1.40;;
8098;SDS011;4092;47.876;9.372;2023-07-08T15:17:44;4.00;;;1.20;;
8098;SDS011;4092;47.876;9.372;2023-07-08T15:20:11;2.07;;;1.20;;
8098;SDS011;4092;47.876;9.372;2023-07-08T15:22:40;1.57;;;1.10;;
8098;SDS011;4092;47.876;9.372;2023-07-08T15:25:09;2.03;;;1.03;;
8098;SDS011;4092;47.876;9.372;2023-07-08T15:27:36;2.23;;;1.03;;
8098;SDS011;4092;47.876;9.372;2023-07-08T15:30:05;2.70;;;1.20;;
8098;SDS011;4092;47.876;9.372;2023-07-08T15:32:43;1.77;;;1.00;;